createdAt,value
2022-10-13T00:01:31.265Z,11.60
2022-10-13T00:03:59.363Z,11.00
2022-10-13T00:06:28.452Z,11.50
2022-10-13T00:08:59.678Z,10.70
2022-10-13T00:11:30.287Z,10.30
2022-10-13T00:14:01.739Z,11.70
2022-10-13T00:16:32.291Z,12.00
2022-10-13T00:19:00.697Z,11.50
2022-10-13T00:21:29.291Z,11.20
2022-10-13T00:23:57.722Z,10.50
2022-10-13T00:26:27.105Z,9.90
2022-10-13T00:28:56.607Z,12.30
2022-10-13T00:31:31.760Z,11.90
2022-10-13T00:34:01.575Z,12.10
2022-10-13T00:36:30.239Z,9.50
2022-10-13T00:38:59.152Z,11.00
2022-10-13T00:41:27.234Z,11.50
2022-10-13T00:44:04.701Z,11.00
2022-10-13T00:46:37.279Z,12.40
2022-10-13T00:49:09.985Z,12.50
2022-10-13T00:51:45.106Z,11.80
2022-10-13T00:54:18.168Z,13.50
2022-10-13T00:56:47.320Z,17.00
2022-10-13T00:59:23.365Z,16.70
2022-10-13T01:01:56.221Z,14.80
2022-10-13T01:04:28.148Z,12.50
2022-10-13T01:06:57.080Z,11.80
2022-10-13T01:09:25.236Z,11.20
2022-10-13T01:12:02.547Z,12.90
2022-10-13T01:14:42.734Z,14.00
2022-10-13T01:17:33.758Z,12.90
2022-10-13T01:20:13.694Z,11.50
2022-10-13T01:23:00.506Z,11.30
2022-10-13T01:26:22.465Z,10.50
2022-10-13T01:28:50.594Z,12.40
2022-10-13T01:31:58.866Z,12.30
2022-10-13T01:34:37.223Z,12.90
2022-10-13T01:37:22.482Z,12.30
2022-10-13T01:40:21.762Z,10.80
2022-10-13T01:42:58.979Z,12.10
2022-10-13T01:45:35.905Z,13.00
2022-10-13T01:48:06.087Z,13.90
2022-10-13T01:50:40.150Z,13.70
2022-10-13T01:53:10.162Z,12.60
2022-10-13T01:55:49.542Z,12.60
2022-10-13T01:58:17.687Z,13.20
2022-10-13T02:01:00.402Z,14.10
2022-10-13T02:03:44.190Z,14.90
2022-10-13T02:06:18.123Z,13.20
2022-10-13T02:08:58.416Z,11.80
2022-10-13T02:11:28.133Z,12.50
2022-10-13T02:14:08.338Z,11.00
2022-10-13T02:16:41.343Z,10.90
2022-10-13T02:19:13.348Z,9.60
2022-10-13T02:21:42.560Z,9.50
2022-10-13T02:24:10.964Z,6.20
2022-10-13T02:26:39.639Z,10.00
2022-10-13T02:29:10.715Z,9.50
2022-10-13T02:31:40.416Z,9.20
2022-10-13T02:34:08.968Z,8.70
2022-10-13T02:36:40.049Z,8.40
2022-10-13T02:39:10.419Z,7.20
2022-10-13T02:41:39.026Z,7.60
2022-10-13T02:44:07.775Z,7.50
2022-10-13T02:46:37.046Z,6.90
2022-10-13T02:49:05.037Z,7.00
2022-10-13T02:51:37.529Z,6.60
2022-10-13T02:54:08.130Z,6.60
2022-10-13T02:56:36.159Z,6.70
2022-10-13T02:59:04.435Z,9.50
2022-10-13T03:01:33.233Z,7.40
2022-10-13T03:04:01.450Z,5.70
2022-10-13T03:06:29.671Z,6.20
2022-10-13T03:08:57.728Z,6.60
2022-10-13T03:11:26.228Z,5.90
2022-10-13T03:13:54.408Z,5.60
2022-10-13T03:16:22.875Z,5.70
2022-10-13T03:18:50.881Z,5.70
2022-10-13T03:21:18.957Z,6.30
2022-10-13T03:23:47.189Z,6.40
2022-10-13T03:26:15.905Z,5.90
2022-10-13T03:28:44.053Z,5.60
2022-10-13T03:31:12.947Z,6.20
2022-10-13T03:33:41.510Z,6.10
2022-10-13T03:36:11.673Z,6.30
2022-10-13T03:38:41.125Z,5.40
2022-10-13T03:41:15.078Z,5.30
2022-10-13T03:43:45.302Z,5.80
2022-10-13T03:46:16.870Z,6.00
2022-10-13T03:48:47.683Z,5.90
2022-10-13T03:51:20.849Z,6.30
2022-10-13T03:53:52.146Z,6.20
2022-10-13T03:56:23.249Z,6.40
2022-10-13T03:58:59.996Z,7.30
2022-10-13T04:01:30.277Z,7.10
2022-10-13T04:04:00.242Z,8.40
2022-10-13T04:06:29.323Z,7.90
2022-10-13T04:08:58.474Z,7.00
2022-10-13T04:11:26.885Z,7.00
2022-10-13T04:13:58.446Z,8.30
2022-10-13T04:16:29.801Z,15.60
2022-10-13T04:19:07.659Z,17.50
2022-10-13T04:21:35.842Z,22.30
2022-10-13T04:24:05.769Z,23.40
2022-10-13T04:26:36.288Z,43.40
2022-10-13T04:29:11.934Z,31.40
2022-10-13T04:31:45.117Z,22.50
2022-10-13T04:34:13.421Z,26.00
2022-10-13T04:36:41.616Z,46.00
2022-10-13T04:39:09.593Z,30.90
2022-10-13T04:41:37.746Z,29.80
2022-10-13T04:44:05.905Z,31.90
2022-10-13T04:46:34.623Z,35.10
2022-10-13T04:49:02.750Z,29.70
2022-10-13T04:51:38.304Z,35.80
2022-10-13T04:54:13.837Z,14.90
2022-10-13T04:56:45.934Z,14.90
2022-10-13T04:59:15.867Z,24.60
2022-10-13T05:01:44.729Z,28.20
2022-10-13T05:04:30.389Z,30.90
2022-10-13T05:07:18.629Z,22.70
2022-10-13T05:09:48.152Z,22.10
2022-10-13T05:12:31.284Z,24.20
2022-10-13T05:15:02.373Z,29.90
2022-10-13T05:17:36.088Z,29.20
2022-10-13T05:20:12.981Z,16.30
2022-10-13T05:22:45.133Z,15.80
2022-10-13T05:25:23.392Z,19.00
2022-10-13T05:27:58.759Z,36.70
2022-10-13T05:30:44.665Z,22.60
2022-10-13T05:33:26.802Z,30.30
2022-10-13T05:36:22.474Z,36.80
2022-10-13T05:39:09.105Z,38.60
2022-10-13T05:42:25.517Z,29.20
2022-10-13T05:53:38.344Z,22.30
2022-10-13T05:56:28.675Z,28.50
2022-10-13T05:59:10.738Z,26.50
2022-10-13T06:01:48.833Z,18.90
2022-10-13T07:45:03.419Z,20.00
2022-10-13T07:47:39.179Z,12.50
2022-10-13T07:50:14.430Z,13.00
2022-10-13T07:52:46.904Z,22.00
2022-10-13T07:55:31.292Z,17.30
2022-10-13T07:58:08.740Z,17.50
2022-10-13T08:05:59.855Z,13.20
2022-10-13T08:08:41.046Z,18.00
2022-10-13T08:11:27.136Z,12.40
2022-10-13T08:14:06.971Z,12.80
2022-10-13T08:38:07.779Z,10.20
2022-10-13T08:40:41.578Z,11.10
2022-10-13T08:43:23.532Z,9.60
2022-10-13T08:46:01.811Z,14.60
2022-10-13T08:48:39.365Z,10.60
2022-10-13T08:51:17.209Z,10.10
2022-10-13T08:53:50.155Z,10.20
2022-10-13T08:56:35.506Z,9.80
2022-10-13T08:59:14.948Z,10.60
2022-10-13T09:01:54.920Z,10.60
2022-10-13T09:04:43.356Z,10.00
2022-10-13T09:07:20.574Z,10.60
2022-10-13T09:09:56.805Z,10.60
2022-10-13T09:12:38.193Z,11.60
2022-10-13T09:15:14.759Z,10.00
2022-10-13T09:17:45.465Z,10.00
2022-10-13T09:20:25.522Z,10.90
2022-10-13T09:23:29.257Z,12.50
2022-10-13T09:26:10.464Z,11.80
2022-10-13T09:28:55.611Z,11.30
2022-10-13T09:31:33.324Z,11.50
2022-10-13T09:34:10.616Z,11.90
2022-10-13T09:36:42.077Z,13.00
2022-10-13T09:39:18.586Z,13.90
2022-10-13T09:41:54.606Z,14.10
2022-10-13T09:44:35.443Z,16.50
2022-10-13T09:47:05.457Z,20.40
2022-10-13T09:49:43.142Z,14.30
2022-10-13T09:52:15.234Z,13.90
2022-10-13T09:54:47.111Z,15.00
2022-10-13T09:57:42.915Z,13.90
2022-10-13T10:03:03.840Z,14.60
2022-10-13T10:05:56.504Z,14.30
2022-10-13T10:09:04.118Z,13.50
2022-10-13T10:11:50.429Z,15.00
2022-10-13T10:14:37.287Z,14.90
2022-10-13T10:17:22.219Z,13.50
2022-10-13T10:19:59.839Z,14.80
2022-10-13T10:23:00.377Z,12.70
2022-10-13T10:25:59.888Z,12.50
2022-10-13T10:28:49.447Z,11.90
2022-10-13T10:31:52.620Z,11.50
2022-10-13T10:34:52.137Z,11.10
2022-10-13T10:37:35.653Z,10.60
2022-10-13T10:44:57.313Z,10.90
2022-10-13T10:47:35.837Z,11.00
2022-10-13T10:50:07.522Z,9.60
2022-10-13T10:52:49.086Z,8.70
2022-10-13T10:55:36.527Z,10.40
2022-10-13T10:58:37.307Z,11.30
2022-10-13T11:01:20.203Z,11.80
2022-10-13T11:04:18.635Z,13.10
2022-10-13T11:06:48.334Z,9.90
2022-10-13T11:09:46.346Z,12.00
2022-10-13T11:12:21.088Z,11.70
2022-10-13T11:15:10.848Z,10.80
2022-10-13T11:17:41.261Z,11.50
2022-10-13T11:20:20.115Z,9.50
2022-10-13T11:23:01.120Z,10.80
2022-10-13T11:25:40.708Z,10.90
2022-10-13T11:28:42.813Z,10.60
2022-10-13T11:31:13.144Z,10.90
2022-10-13T11:33:44.207Z,10.60
2022-10-13T11:36:59.379Z,11.40
2022-10-13T11:40:05.377Z,12.20
2022-10-13T11:43:04.994Z,10.30
2022-10-13T11:46:02.918Z,11.00
2022-10-13T11:48:49.779Z,11.70
2022-10-13T11:51:37.258Z,12.20
2022-10-13T11:54:39.882Z,10.80
2022-10-13T11:57:23.712Z,13.60
2022-10-13T11:59:55.911Z,12.50
2022-10-13T12:02:31.059Z,13.10
2022-10-13T12:05:24.491Z,12.80
2022-10-13T12:07:55.718Z,13.00
2022-10-13T12:10:28.949Z,11.90
2022-10-13T12:12:59.322Z,13.60
2022-10-13T12:15:44.627Z,12.80
2022-10-13T12:18:46.099Z,13.80
2022-10-13T12:21:20.010Z,11.40
2022-10-13T12:23:51.501Z,12.30
2022-10-13T12:26:23.184Z,12.90
2022-10-13T12:29:01.318Z,7.70
2022-10-13T12:31:44.854Z,13.30
2022-10-13T12:34:27.840Z,12.80
2022-10-13T12:37:00.837Z,12.80
2022-10-13T12:39:32.421Z,13.10
2022-10-13T12:42:03.499Z,13.00
2022-10-13T12:44:32.977Z,13.10
2022-10-13T12:47:03.997Z,12.50
2022-10-13T12:49:35.445Z,12.10
2022-10-13T12:52:04.024Z,12.80
2022-10-13T12:54:35.167Z,12.80
2022-10-13T12:57:16.007Z,11.80
2022-10-13T12:59:45.963Z,12.00
2022-10-13T13:02:33.520Z,11.70
2022-10-13T13:05:03.056Z,12.10
2022-10-13T13:07:34.302Z,11.20
2022-10-13T13:10:17.061Z,11.50
2022-10-13T13:12:47.214Z,14.30
2022-10-13T13:15:37.917Z,8.80
2022-10-13T13:18:39.801Z,10.50
2022-10-13T13:21:12.591Z,8.40
2022-10-13T13:23:51.031Z,9.20
2022-10-13T13:26:24.263Z,9.70
2022-10-13T13:28:56.514Z,10.60
2022-10-13T13:31:26.513Z,8.50
2022-10-13T13:33:55.119Z,9.90
2022-10-13T13:36:26.100Z,13.70
2022-10-13T13:38:55.217Z,13.60
2022-10-13T13:41:27.862Z,13.40
2022-10-13T13:43:57.585Z,12.40
2022-10-13T13:46:32.382Z,12.90
2022-10-13T13:49:02.936Z,9.90
2022-10-13T13:51:31.807Z,29.30
2022-10-13T13:54:02.469Z,94.00
2022-10-13T13:56:30.860Z,38.40
2022-10-13T13:59:00.256Z,50.90
2022-10-13T14:01:28.421Z,87.00
2022-10-13T14:03:56.879Z,63.40
2022-10-13T14:06:25.315Z,34.00
2022-10-13T14:08:53.425Z,17.40
2022-10-13T14:11:21.679Z,13.80
2022-10-13T14:13:49.996Z,13.10
2022-10-13T14:16:25.653Z,16.20
2022-10-13T14:18:56.146Z,15.10
2022-10-13T14:21:26.869Z,15.40
2022-10-13T14:23:58.412Z,35.50
2022-10-13T14:26:26.455Z,38.30
2022-10-13T14:28:54.573Z,36.00
2022-10-13T14:31:22.692Z,16.10
2022-10-13T14:33:54.133Z,22.10
2022-10-13T14:36:25.592Z,20.10
2022-10-13T14:38:55.060Z,18.90
2022-10-13T14:41:23.294Z,17.00
2022-10-13T14:43:56.202Z,33.90
2022-10-13T14:46:25.111Z,18.00
2022-10-13T14:48:53.280Z,91.60
2022-10-13T14:51:21.427Z,27.90
2022-10-13T14:53:49.445Z,24.20
2022-10-13T14:56:19.583Z,14.00
2022-10-13T14:58:53.639Z,24.00
2022-10-13T15:01:22.151Z,15.30
2022-10-13T15:03:51.166Z,43.20
2022-10-13T15:06:22.150Z,21.40
2022-10-13T15:08:50.664Z,13.80
2022-10-13T15:11:20.458Z,12.30
2022-10-13T15:13:48.759Z,13.10
2022-10-13T15:16:22.659Z,12.80
2022-10-13T15:18:51.346Z,13.00
2022-10-13T15:21:19.638Z,12.70
2022-10-13T15:23:47.747Z,10.60
2022-10-13T15:26:18.115Z,14.20
2022-10-13T15:28:48.653Z,12.90
2022-10-13T15:31:18.752Z,16.10
2022-10-13T15:33:53.004Z,13.90
2022-10-13T15:36:23.343Z,14.00
2022-10-13T15:38:52.582Z,13.80
2022-10-13T15:41:23.099Z,15.00
2022-10-13T15:43:51.407Z,15.20
2022-10-13T15:46:24.405Z,14.50
2022-10-13T15:48:54.384Z,23.80
2022-10-13T15:51:27.021Z,23.50
2022-10-13T15:53:55.393Z,20.10
2022-10-13T15:56:23.647Z,21.50
2022-10-13T15:58:51.737Z,22.80
2022-10-13T16:01:19.950Z,21.90
2022-10-13T16:03:48.404Z,20.10
2022-10-13T16:06:16.487Z,20.00
2022-10-13T16:08:44.798Z,23.40
2022-10-13T16:11:20.143Z,27.90
2022-10-13T16:13:50.526Z,24.10
2022-10-13T16:16:19.578Z,25.00
2022-10-13T16:18:48.219Z,43.50
2022-10-13T16:21:26.012Z,42.20
2022-10-13T16:23:54.360Z,38.30
2022-10-13T16:26:23.960Z,55.70
2022-10-13T16:28:56.014Z,46.00
2022-10-13T16:31:25.092Z,128.70
2022-10-13T16:33:53.145Z,74.90
2022-10-13T16:36:21.432Z,50.80
2022-10-13T16:38:55.020Z,28.00
2022-10-13T16:41:24.059Z,53.40
2022-10-13T16:43:52.172Z,41.50
2022-10-13T16:46:20.754Z,81.20
2022-10-13T16:48:48.928Z,43.80
2022-10-13T16:51:23.100Z,14.50
2022-10-13T16:54:01.334Z,15.90
2022-10-13T16:56:32.355Z,53.30
2022-10-13T16:59:04.867Z,34.30
2022-10-13T17:01:36.537Z,19.50
2022-10-13T17:04:04.984Z,20.60
2022-10-13T17:06:33.268Z,108.20
2022-10-13T17:09:03.432Z,86.70
2022-10-13T17:11:33.939Z,29.70
2022-10-13T17:14:05.835Z,29.70
2022-10-13T17:16:34.104Z,29.30
2022-10-13T17:19:03.254Z,33.20
2022-10-13T17:21:37.065Z,34.90
2022-10-13T17:24:06.982Z,55.40
2022-10-13T17:26:36.926Z,54.60
2022-10-13T17:29:05.499Z,43.20
2022-10-13T17:31:33.811Z,37.10
2022-10-13T17:34:02.252Z,25.30
2022-10-13T17:36:34.569Z,26.70
2022-10-13T17:39:11.477Z,95.40
2022-10-13T17:41:43.412Z,133.80
2022-10-13T17:44:11.834Z,59.90
2022-10-13T17:46:40.106Z,28.70
2022-10-13T17:49:11.789Z,22.70
2022-10-13T17:51:41.493Z,37.30
2022-10-13T17:54:15.652Z,37.90
2022-10-13T17:56:48.522Z,38.00
2022-10-13T17:59:18.447Z,42.80
2022-10-13T18:01:47.089Z,57.60
2022-10-13T18:04:18.322Z,60.50
2022-10-13T18:06:46.573Z,74.80
2022-10-13T18:09:20.556Z,57.50
2022-10-13T18:11:51.067Z,53.70
2022-10-13T18:14:21.954Z,45.80
2022-10-13T18:16:51.733Z,39.70
2022-10-13T18:19:21.485Z,40.70
2022-10-13T18:21:50.331Z,38.60
2022-10-13T18:24:18.759Z,38.40
2022-10-13T18:26:46.988Z,54.10
2022-10-13T18:29:15.291Z,50.10
2022-10-13T18:31:43.837Z,35.30
2022-10-13T18:34:17.166Z,40.10
2022-10-13T18:36:47.681Z,43.00
2022-10-13T18:39:20.707Z,48.20
2022-10-13T18:41:50.657Z,46.10
2022-10-13T18:44:19.603Z,38.90
2022-10-13T18:46:52.491Z,39.70
2022-10-13T18:49:31.119Z,36.50
2022-10-13T18:52:01.411Z,36.80
2022-10-13T18:54:30.524Z,39.10
2022-10-13T18:56:58.772Z,38.30
2022-10-13T18:59:26.975Z,37.60
2022-10-13T19:01:55.047Z,20.90
2022-10-13T19:04:26.352Z,34.30
2022-10-13T19:06:55.578Z,37.10
2022-10-13T19:09:24.993Z,31.80
2022-10-13T19:11:56.610Z,31.70
2022-10-13T19:14:25.953Z,36.00
2022-10-13T19:16:58.179Z,33.70
2022-10-13T19:19:29.649Z,31.00
2022-10-13T19:21:58.990Z,46.60
2022-10-13T19:24:27.311Z,34.40
2022-10-13T19:26:56.229Z,34.90
2022-10-13T19:29:24.407Z,37.40
2022-10-13T19:31:52.584Z,37.20
2022-10-13T19:34:20.841Z,32.40
2022-10-13T19:36:48.957Z,37.80
2022-10-13T19:39:20.841Z,32.00
2022-10-13T19:41:51.005Z,36.80
2022-10-13T19:44:20.724Z,37.30
2022-10-13T19:46:49.958Z,28.70
2022-10-13T19:49:21.243Z,31.90
2022-10-13T19:51:50.309Z,32.90
2022-10-13T19:54:19.826Z,28.80
2022-10-13T19:56:49.788Z,27.00
2022-10-13T19:59:18.888Z,24.30
2022-10-13T20:01:47.836Z,22.30
2022-10-13T20:04:18.700Z,21.30
2022-10-13T20:06:48.398Z,22.40
2022-10-13T20:09:18.005Z,23.00
2022-10-13T20:11:50.693Z,25.80
2022-10-13T20:14:19.713Z,23.50
2022-10-13T20:16:48.941Z,19.40
2022-10-13T20:19:19.948Z,18.00
2022-10-13T20:21:51.868Z,21.30
2022-10-13T20:24:21.801Z,20.70
2022-10-13T20:26:50.399Z,18.80
2022-10-13T20:29:22.457Z,18.50
2022-10-13T20:31:50.623Z,17.40
2022-10-13T20:34:18.639Z,18.10
2022-10-13T20:36:46.830Z,19.00
2022-10-13T20:39:15.413Z,17.60
2022-10-13T20:41:43.878Z,16.80
2022-10-13T20:44:12.637Z,15.80
2022-10-13T20:46:40.707Z,19.00
2022-10-13T20:49:11.793Z,16.80
2022-10-13T20:51:41.967Z,17.50
2022-10-13T20:54:12.342Z,19.50
2022-10-13T20:56:41.061Z,18.00
2022-10-13T20:59:12.885Z,17.90
2022-10-13T21:01:41.302Z,17.60
2022-10-13T21:04:11.317Z,19.80
2022-10-13T21:06:41.185Z,23.00
2022-10-13T21:09:10.101Z,21.90
2022-10-13T21:11:39.783Z,19.40
2022-10-13T21:14:09.821Z,25.90
2022-10-13T21:16:40.539Z,29.90
2022-10-13T21:19:12.696Z,22.10
2022-10-13T21:21:40.937Z,27.70
2022-10-13T21:24:10.394Z,34.70
2022-10-13T21:26:41.080Z,30.90
2022-10-13T21:29:15.500Z,33.60
2022-10-13T21:31:43.711Z,34.20
2022-10-13T21:34:12.840Z,23.60
2022-10-13T21:36:44.556Z,23.80
2022-10-13T21:39:14.832Z,20.50
2022-10-13T21:41:43.378Z,19.40
2022-10-13T21:44:14.020Z,18.50
2022-10-13T21:46:42.498Z,18.90
2022-10-13T21:49:10.784Z,19.70
2022-10-13T21:51:39.999Z,10.10
2022-10-13T21:54:11.237Z,17.00
2022-10-13T21:56:40.597Z,12.90
2022-10-13T21:59:10.190Z,16.90
2022-10-13T22:01:38.274Z,18.50
2022-10-13T22:04:13.712Z,9.90
2022-10-13T22:06:42.370Z,17.30
2022-10-13T22:09:10.994Z,19.20
2022-10-13T22:11:39.769Z,19.70
2022-10-13T22:14:13.869Z,20.40
2022-10-13T22:16:45.704Z,20.60
2022-10-13T22:19:16.036Z,22.90
2022-10-13T22:21:47.134Z,11.80
2022-10-13T22:24:18.372Z,22.00
2022-10-13T22:26:49.336Z,21.60
2022-10-13T22:29:21.532Z,22.30
2022-10-13T22:31:51.057Z,20.90
2022-10-13T22:34:19.029Z,12.50
2022-10-13T22:36:47.075Z,22.20
2022-10-13T22:39:15.596Z,12.30
2022-10-13T22:41:44.333Z,15.00
2022-10-13T22:44:13.604Z,27.70
2022-10-13T22:46:42.170Z,25.70
2022-10-13T22:49:14.753Z,14.00
2022-10-13T22:51:42.777Z,26.80
2022-10-13T22:54:10.875Z,13.00
2022-10-13T22:56:41.178Z,19.50
2022-10-13T22:59:11.646Z,10.70
2022-10-13T23:01:39.885Z,9.30
2022-10-13T23:04:08.499Z,15.80
2022-10-13T23:06:36.603Z,8.00
2022-10-13T23:09:10.520Z,12.10
2022-10-13T23:11:39.258Z,32.40
2022-10-13T23:14:09.707Z,11.30
2022-10-13T23:16:38.344Z,9.60
2022-10-13T23:19:06.600Z,21.00
2022-10-13T23:21:34.744Z,10.80
2022-10-13T23:24:06.144Z,24.40
2022-10-13T23:26:34.913Z,20.70
2022-10-13T23:29:04.888Z,10.70
2022-10-13T23:31:33.557Z,10.40
2022-10-13T23:34:02.111Z,19.40
2022-10-13T23:36:32.777Z,10.30
2022-10-13T23:39:05.360Z,17.10
2022-10-13T23:41:37.444Z,8.80
2022-10-13T23:44:05.702Z,13.10
2022-10-13T23:46:34.029Z,9.30
2022-10-13T23:49:02.277Z,8.20
2022-10-13T23:51:31.038Z,15.90
2022-10-13T23:53:59.228Z,8.00
2022-10-13T23:56:27.719Z,8.50
2022-10-13T23:58:55.706Z,8.50
